Time;durP1;ratioP1;P1;durP2;ratioP2;P2;SDS_P1;SDS_P2;PMS_P1;PMS_P2;Temp;Humidity;BMP_temperature;BMP_pressure;BME280_temperature;BME280_humidity;BME280_pressure;Samples;Min_cycle;Max_cycle;Signal;HPM_P1;HPM_P2
2023/05/11 00:01:05;;;;;;;23.10;13.77;;;;;;;;;;5046110;28;20917;-47
2023/05/11 00:03:31;;;;;;;24.43;14.80;;;;;;;;;;5047767;28;20520;-44
2023/05/11 00:05:58;;;;;;;24.63;15.10;;;;;;;;;;5048149;28;20429;-44
2023/05/11 00:08:23;;;;;;;22.50;15.07;;;;;;;;;;5048161;28;20510;-45
2023/05/11 00:10:49;;;;;;;22.63;15.03;;;;;;;;;;5047188;28;20843;-44
2023/05/11 00:13:16;;;;;;;27.17;14.77;;;;;;;;;;5046932;28;20413;-44
2023/05/11 00:15:42;;;;;;;22.67;14.87;;;;;;;;;;5048810;28;20544;-46
2023/05/11 00:18:08;;;;;;;23.43;15.13;;;;;;;;;;5051211;28;20494;-45
2023/05/11 00:20:34;;;;;;;24.63;15.17;;;;;;;;;;5049388;28;20449;-44
2023/05/11 00:23:00;;;;;;;25.93;16.50;;;;;;;;;;5051657;28;20393;-44
2023/05/11 00:25:25;;;;;;;26.50;15.30;;;;;;;;;;5051336;28;20429;-43
2023/05/11 00:27:51;;;;;;;27.23;15.30;;;;;;;;;;5051444;28;20408;-44
2023/05/11 00:30:17;;;;;;;27.57;14.63;;;;;;;;;;5051423;28;20434;-44
2023/05/11 00:32:44;;;;;;;25.43;15.23;;;;;;;;;;5051390;28;20474;-44
2023/05/11 00:35:10;;;;;;;26.73;15.37;;;;;;;;;;5049271;28;20461;-45
2023/05/11 00:37:40;;;;;;;33.30;18.13;;;;;;;;;;5051393;28;20450;-44
2023/05/11 00:40:06;;;;;;;30.67;17.43;;;;;;;;;;5051572;28;20466;-45
2023/05/11 00:42:32;;;;;;;31.17;17.50;;;;;;;;;;5051119;28;20403;-45
2023/05/11 00:44:58;;;;;;;28.70;16.27;;;;;;;;;;5051209;27;20423;-45
2023/05/11 00:47:26;;;;;;;23.97;15.30;;;;;;;;;;5051221;28;20894;-45
2023/05/11 00:49:52;;;;;;;33.33;17.50;;;;;;;;;;5051239;28;20466;-44
2023/05/11 00:52:19;;;;;;;26.73;16.90;;;;;;;;;;5051017;28;20402;-44
2023/05/11 00:54:46;;;;;;;33.43;20.03;;;;;;;;;;5049905;28;20429;-47
2023/05/11 00:57:14;;;;;;;30.70;18.10;;;;;;;;;;5049745;28;20464;-44
2023/05/11 00:59:40;;;;;;;25.30;16.33;;;;;;;;;;5050894;28;20400;-45
2023/05/11 01:02:06;;;;;;;33.27;17.73;;;;;;;;;;5050584;28;20406;-45
2023/05/11 01:04:33;;;;;;;23.00;14.60;;;;;;;;;;5050262;28;20410;-44
2023/05/11 01:07:11;;;;;;;28.43;16.27;;;;;;;;;;5050800;28;20403;-45
2023/05/11 01:09:46;;;;;;;26.57;16.47;;;;;;;;;;5050888;28;20417;-45
2023/05/11 01:12:15;;;;;;;27.93;17.17;;;;;;;;;;5050607;28;20788;-44
2023/05/11 01:14:45;;;;;;;29.80;18.80;;;;;;;;;;5050596;28;20427;-45
2023/05/11 01:17:16;;;;;;;26.23;16.27;;;;;;;;;;5048481;28;20962;-44
2023/05/11 01:19:48;;;;;;;26.13;16.17;;;;;;;;;;5050540;28;20424;-44
2023/05/11 01:22:30;;;;;;;24.23;16.87;;;;;;;;;;5048945;28;20433;-44
2023/05/11 01:25:06;;;;;;;30.23;16.80;;;;;;;;;;5050436;28;21024;-45
2023/05/11 01:27:42;;;;;;;28.60;15.33;;;;;;;;;;5051332;27;20912;-46
2023/05/11 01:30:14;;;;;;;27.40;16.23;;;;;;;;;;5050503;28;20423;-44
2023/05/11 01:32:40;;;;;;;22.20;15.37;;;;;;;;;;5050673;28;20429;-44
2023/05/11 01:35:10;;;;;;;27.83;15.53;;;;;;;;;;5050151;28;20430;-45
2023/05/11 01:37:38;;;;;;;25.23;15.20;;;;;;;;;;5050145;28;20449;-44
2023/05/11 01:40:07;;;;;;;29.60;16.00;;;;;;;;;;5050414;28;20488;-45
2023/05/11 01:42:39;;;;;;;25.77;16.43;;;;;;;;;;5050171;28;20443;-44
2023/05/11 01:45:07;;;;;;;24.97;14.13;;;;;;;;;;5050271;27;20426;-47
2023/05/11 01:47:33;;;;;;;37.53;17.47;;;;;;;;;;5049982;28;20941;-44
2023/05/11 01:50:00;;;;;;;28.53;16.27;;;;;;;;;;5050130;28;20934;-45
2023/05/11 01:52:30;;;;;;;25.57;15.50;;;;;;;;;;5047673;28;20430;-45
2023/05/11 01:54:57;;;;;;;29.10;16.67;;;;;;;;;;5049179;28;20459;-48
2023/05/11 01:57:24;;;;;;;28.00;16.30;;;;;;;;;;5048059;27;20514;-44
2023/05/11 01:59:51;;;;;;;31.43;16.77;;;;;;;;;;5050143;28;20818;-45
2023/05/11 02:02:18;;;;;;;29.30;17.80;;;;;;;;;;5050435;28;20467;-46
2023/05/11 02:04:45;;;;;;;32.37;18.00;;;;;;;;;;5049726;28;20482;-45
2023/05/11 02:07:12;;;;;;;27.20;16.20;;;;;;;;;;5050116;28;20968;-45
2023/05/11 02:09:40;;;;;;;30.77;17.30;;;;;;;;;;5049929;28;20974;-45
2023/05/11 02:12:06;;;;;;;37.07;20.27;;;;;;;;;;5049715;28;20426;-45
2023/05/11 02:14:35;;;;;;;32.67;19.40;;;;;;;;;;5049513;28;20437;-47
2023/05/11 02:17:01;;;;;;;38.43;18.50;;;;;;;;;;5049501;28;20452;-45
2023/05/11 02:19:28;;;;;;;32.63;19.00;;;;;;;;;;5049753;28;20431;-46
2023/05/11 02:21:55;;;;;;;35.50;20.00;;;;;;;;;;5049713;28;20415;-44
2023/05/11 02:24:24;;;;;;;41.07;19.87;;;;;;;;;;5049513;28;20440;-46
2023/05/11 02:26:50;;;;;;;37.13;19.60;;;;;;;;;;5047956;28;20434;-45
2023/05/11 02:29:16;;;;;;;35.87;21.67;;;;;;;;;;5048492;28;20439;-46
2023/05/11 02:31:43;;;;;;;36.43;19.37;;;;;;;;;;5049475;27;20418;-47
2023/05/11 02:34:19;;;;;;;39.93;20.43;;;;;;;;;;5049405;27;20449;-45
2023/05/11 02:36:46;;;;;;;40.30;18.83;;;;;;;;;;5048896;28;20494;-45
2023/05/11 02:39:12;;;;;;;39.50;20.80;;;;;;;;;;5048889;28;20399;-45
2023/05/11 02:41:41;;;;;;;41.47;21.97;;;;;;;;;;5049304;27;20395;-46
2023/05/11 02:44:08;;;;;;;41.70;21.00;;;;;;;;;;5049052;27;20970;-46
2023/05/11 02:46:36;;;;;;;50.87;22.50;;;;;;;;;;5049564;27;20469;-44
2023/05/11 02:49:03;;;;;;;42.70;21.27;;;;;;;;;;5049224;27;20461;-46
2023/05/11 02:51:34;;;;;;;41.20;21.03;;;;;;;;;;5049080;28;20992;-45
2023/05/11 02:54:01;;;;;;;41.43;22.57;;;;;;;;;;5048897;27;20522;-46
2023/05/11 02:56:27;;;;;;;37.73;21.33;;;;;;;;;;5046883;27;20476;-47
2023/05/11 02:58:53;;;;;;;36.00;19.70;;;;;;;;;;5048670;28;20786;-45
2023/05/11 03:01:19;;;;;;;44.57;21.10;;;;;;;;;;5049401;27;20409;-47
2023/05/11 03:03:45;;;;;;;32.60;18.77;;;;;;;;;;5048772;27;20856;-45
2023/05/11 03:06:11;;;;;;;41.87;20.17;;;;;;;;;;5049124;27;20424;-45
2023/05/11 03:08:38;;;;;;;48.57;21.80;;;;;;;;;;5048862;27;20420;-46
2023/05/11 03:11:04;;;;;;;37.93;20.73;;;;;;;;;;5048836;27;20430;-46
2023/05/11 03:13:30;;;;;;;46.60;21.20;;;;;;;;;;5048847;28;20434;-45
2023/05/11 03:15:57;;;;;;;42.93;21.80;;;;;;;;;;5047850;28;20455;-45
2023/05/11 03:18:25;;;;;;;48.33;23.00;;;;;;;;;;5047259;28;20427;-45
2023/05/11 03:20:51;;;;;;;38.03;19.10;;;;;;;;;;5048763;28;20458;-45
2023/05/11 03:23:18;;;;;;;36.57;19.77;;;;;;;;;;5048293;28;20403;-45
2023/05/11 03:25:45;;;;;;;42.83;21.17;;;;;;;;;;5048821;28;20497;-45
2023/05/11 03:28:11;;;;;;;47.20;22.00;;;;;;;;;;5048766;28;20403;-46
2023/05/11 03:30:39;;;;;;;38.37;21.20;;;;;;;;;;5048728;28;20456;-45
2023/05/11 03:33:05;;;;;;;40.73;21.77;;;;;;;;;;5046483;28;20920;-45
2023/05/11 03:35:32;;;;;;;46.60;21.60;;;;;;;;;;5048280;28;20927;-45
2023/05/11 03:37:58;;;;;;;42.50;21.77;;;;;;;;;;5048546;28;20778;-45
2023/05/11 03:40:26;;;;;;;35.00;19.53;;;;;;;;;;5048580;28;20438;-45
2023/05/11 03:42:54;;;;;;;38.30;21.47;;;;;;;;;;5048183;28;20418;-46
2023/05/11 03:45:21;;;;;;;41.90;20.30;;;;;;;;;;5048428;28;20468;-45
2023/05/11 03:47:48;;;;;;;35.73;20.90;;;;;;;;;;5047219;27;20421;-46
2023/05/11 03:50:17;;;;;;;41.80;20.73;;;;;;;;;;5051661;28;20415;-45
2023/05/11 03:52:44;;;;;;;36.07;20.67;;;;;;;;;;5051653;28;20419;-45
2023/05/11 03:55:11;;;;;;;36.37;19.87;;;;;;;;;;5051879;28;20481;-45
2023/05/11 03:57:37;;;;;;;35.03;19.67;;;;;;;;;;5051916;28;20454;-45
2023/05/11 04:00:23;;;;;;;46.83;22.47;;;;;;;;;;5051924;27;20494;-46
2023/05/11 04:02:49;;;;;;;34.20;20.17;;;;;;;;;;5051358;28;20533;-46
2023/05/11 04:05:17;;;;;;;44.10;22.97;;;;;;;;;;5051763;28;20459;-45
2023/05/11 04:07:43;;;;;;;38.07;20.83;;;;;;;;;;5051816;28;20418;-45
2023/05/11 04:10:09;;;;;;;43.03;20.97;;;;;;;;;;5051890;28;20503;-46
2023/05/11 04:12:35;;;;;;;47.83;23.57;;;;;;;;;;5051411;28;20414;-47
2023/05/11 04:15:01;;;;;;;49.70;25.33;;;;;;;;;;5051643;28;20461;-46
2023/05/11 04:17:27;;;;;;;40.83;23.00;;;;;;;;;;5051475;28;21036;-45
2023/05/11 04:19:53;;;;;;;38.80;21.90;;;;;;;;;;5049744;28;20436;-45
2023/05/11 04:22:19;;;;;;;45.57;23.90;;;;;;;;;;5050957;28;20422;-46
2023/05/11 04:24:45;;;;;;;46.33;22.83;;;;;;;;;;5051285;28;20428;-45
2023/05/11 04:27:11;;;;;;;43.97;23.33;;;;;;;;;;5051478;27;20470;-46
2023/05/11 04:29:37;;;;;;;43.57;23.13;;;;;;;;;;5051329;27;20454;-45
2023/05/11 04:32:03;;;;;;;43.23;23.43;;;;;;;;;;5051166;28;20455;-45
2023/05/11 04:34:29;;;;;;;49.63;22.20;;;;;;;;;;5051101;28;20479;-46
2023/05/11 04:36:55;;;;;;;47.07;25.33;;;;;;;;;;5051504;28;20467;-45
2023/05/11 04:39:20;;;;;;;51.03;23.57;;;;;;;;;;5051385;28;20493;-45
2023/05/11 04:41:46;;;;;;;43.00;22.23;;;;;;;;;;5051281;28;20410;-44
2023/05/11 04:44:12;;;;;;;51.53;25.40;;;;;;;;;;5050974;28;20432;-45
2023/05/11 04:46:38;;;;;;;44.27;23.53;;;;;;;;;;5051014;28;20420;-45
2023/05/11 04:49:05;;;;;;;43.23;24.23;;;;;;;;;;5048997;28;20435;-46
2023/05/11 04:51:31;;;;;;;48.80;24.83;;;;;;;;;;5050292;28;20506;-45
2023/05/11 04:53:57;;;;;;;65.70;26.63;;;;;;;;;;5050854;28;20418;-46
2023/05/11 04:56:23;;;;;;;45.40;23.50;;;;;;;;;;5050946;28;20616;-47
2023/05/11 04:58:49;;;;;;;43.93;23.83;;;;;;;;;;5050980;27;20502;-46
2023/05/11 05:01:15;;;;;;;44.37;23.03;;;;;;;;;;5050158;27;20423;-45
2023/05/11 05:03:41;;;;;;;46.00;24.73;;;;;;;;;;5050668;27;20433;-45
2023/05/11 05:06:07;;;;;;;42.90;23.37;;;;;;;;;;5050980;27;20420;-45
2023/05/11 05:08:33;;;;;;;46.83;24.37;;;;;;;;;;5050864;27;20451;-45
2023/05/11 05:10:59;;;;;;;46.17;23.93;;;;;;;;;;5051020;27;20405;-45
2023/05/11 05:13:26;;;;;;;44.40;24.03;;;;;;;;;;5050463;27;20450;-45
2023/05/11 05:15:52;;;;;;;50.87;26.03;;;;;;;;;;5050494;27;20487;-46
2023/05/11 05:18:18;;;;;;;44.63;23.37;;;;;;;;;;5050691;27;20770;-45
2023/05/11 05:20:43;;;;;;;46.80;25.53;;;;;;;;;;5048876;27;20921;-45
2023/05/11 05:23:10;;;;;;;38.93;22.50;;;;;;;;;;5049531;28;20962;-46
2023/05/11 05:25:36;;;;;;;42.00;22.60;;;;;;;;;;5050474;28;20410;-46
2023/05/11 05:28:01;;;;;;;42.80;23.40;;;;;;;;;;5050444;28;20875;-45
2023/05/11 05:30:28;;;;;;;47.63;25.70;;;;;;;;;;5050294;28;20388;-45
2023/05/11 05:32:54;;;;;;;50.80;22.40;;;;;;;;;;5050339;28;20795;-45
2023/05/11 05:35:20;;;;;;;43.37;24.60;;;;;;;;;;5050002;28;20444;-44
2023/05/11 05:37:46;;;;;;;45.47;24.03;;;;;;;;;;5049984;28;20423;-46
2023/05/11 05:40:12;;;;;;;41.80;22.83;;;;;;;;;;5049646;28;20393;-45
2023/05/11 05:42:41;;;;;;;44.67;23.60;;;;;;;;;;5050225;28;20484;-45
2023/05/11 05:45:07;;;;;;;44.10;22.40;;;;;;;;;;5050203;27;20499;-44
2023/05/11 05:47:33;;;;;;;45.83;23.17;;;;;;;;;;5048268;28;20540;-46
2023/05/11 05:49:59;;;;;;;43.93;23.70;;;;;;;;;;5049994;28;20500;-45
2023/05/11 05:52:25;;;;;;;40.90;22.23;;;;;;;;;;5047823;28;20979;-45
2023/05/11 05:54:52;;;;;;;46.67;24.10;;;;;;;;;;5049260;28;20528;-45
2023/05/11 05:57:18;;;;;;;44.00;23.17;;;;;;;;;;5049935;28;20453;-44
2023/05/11 05:59:44;;;;;;;37.60;21.87;;;;;;;;;;5049803;28;20837;-46
2023/05/11 06:02:12;;;;;;;35.30;21.60;;;;;;;;;;5050027;27;20823;-45
2023/05/11 06:04:40;;;;;;;41.30;20.77;;;;;;;;;;5049883;28;20439;-45
2023/05/11 06:07:07;;;;;;;37.70;21.53;;;;;;;;;;5049944;28;20471;-45
2023/05/11 06:09:33;;;;;;;35.00;20.33;;;;;;;;;;5049860;28;20417;-44
2023/05/11 06:11:59;;;;;;;35.77;20.70;;;;;;;;;;5048794;28;20764;-44
2023/05/11 06:14:25;;;;;;;33.53;19.93;;;;;;;;;;5049387;28;20792;-44
2023/05/11 06:16:52;;;;;;;36.43;20.90;;;;;;;;;;5049745;28;20456;-44
2023/05/11 06:19:18;;;;;;;31.60;18.53;;;;;;;;;;5049599;28;20444;-45
2023/05/11 06:21:45;;;;;;;32.30;20.33;;;;;;;;;;5048726;28;20415;-44
2023/05/11 06:24:12;;;;;;;35.43;20.53;;;;;;;;;;5047597;27;20465;-45
2023/05/11 06:26:39;;;;;;;34.50;19.73;;;;;;;;;;5049438;28;20508;-45
2023/05/11 06:29:05;;;;;;;30.50;18.20;;;;;;;;;;5049478;28;20388;-46
2023/05/11 06:31:31;;;;;;;42.80;20.37;;;;;;;;;;5049603;27;20419;-45
2023/05/11 06:33:57;;;;;;;34.43;21.10;;;;;;;;;;5049150;28;20452;-44
2023/05/11 06:36:24;;;;;;;32.07;18.20;;;;;;;;;;5049635;27;20485;-45
2023/05/11 06:38:50;;;;;;;38.93;20.00;;;;;;;;;;5049366;28;20388;-44
2023/05/11 06:41:16;;;;;;;34.00;21.20;;;;;;;;;;5049187;27;20407;-45
2023/05/11 06:43:42;;;;;;;37.63;21.23;;;;;;;;;;5049305;28;20412;-45
2023/05/11 06:46:08;;;;;;;34.50;18.77;;;;;;;;;;5049319;28;20396;-45
2023/05/11 06:48:34;;;;;;;36.07;21.63;;;;;;;;;;5049151;28;20779;-45
2023/05/11 06:51:00;;;;;;;37.37;19.00;;;;;;;;;;5049184;28;20392;-45
2023/05/11 06:53:26;;;;;;;36.83;19.53;;;;;;;;;;5046982;28;20396;-46
2023/05/11 06:55:54;;;;;;;30.87;18.20;;;;;;;;;;5029215;28;20531;-45
2023/05/11 06:58:20;;;;;;;36.07;20.30;;;;;;;;;;5045212;28;20436;-46
2023/05/11 07:00:46;;;;;;;33.40;20.50;;;;;;;;;;5048709;28;20854;-45
2023/05/11 07:03:13;;;;;;;41.30;23.67;;;;;;;;;;5048129;28;20450;-45
2023/05/11 07:05:39;;;;;;;36.87;21.00;;;;;;;;;;5044165;28;20384;-45
2023/05/11 07:08:06;;;;;;;31.63;19.67;;;;;;;;;;5042131;28;20411;-45
2023/05/11 07:10:32;;;;;;;33.87;20.33;;;;;;;;;;5048252;28;20382;-45
2023/05/11 07:12:58;;;;;;;39.27;20.27;;;;;;;;;;5047724;28;20813;-45
2023/05/11 07:15:24;;;;;;;37.60;19.10;;;;;;;;;;5048211;28;20409;-46
2023/05/11 07:17:51;;;;;;;36.03;19.73;;;;;;;;;;5048121;28;21058;-45
2023/05/11 07:20:17;;;;;;;27.03;18.07;;;;;;;;;;5047968;28;20845;-45
2023/05/11 07:22:43;;;;;;;33.30;19.90;;;;;;;;;;5046694;28;20496;-46
2023/05/11 07:25:09;;;;;;;35.00;19.13;;;;;;;;;;5046420;28;20434;-46
2023/05/11 07:27:35;;;;;;;31.90;18.33;;;;;;;;;;5048276;27;20389;-45
2023/05/11 07:30:02;;;;;;;35.63;19.17;;;;;;;;;;5048606;27;20951;-47
2023/05/11 07:32:28;;;;;;;29.70;18.40;;;;;;;;;;5047512;27;20382;-45
2023/05/11 07:34:54;;;;;;;29.70;17.40;;;;;;;;;;5048751;27;20418;-46
2023/05/11 07:37:20;;;;;;;36.10;18.53;;;;;;;;;;5048707;27;20445;-47
2023/05/11 07:39:46;;;;;;;28.20;17.87;;;;;;;;;;5048514;27;20897;-46
2023/05/11 07:42:12;;;;;;;31.87;18.40;;;;;;;;;;5048331;27;20871;-47
2023/05/11 07:44:38;;;;;;;33.53;16.80;;;;;;;;;;5048425;28;20406;-45
2023/05/11 07:47:04;;;;;;;29.03;17.20;;;;;;;;;;5048542;28;20873;-45
2023/05/11 07:49:30;;;;;;;29.90;17.27;;;;;;;;;;5048613;28;20413;-45
2023/05/11 07:51:56;;;;;;;30.90;19.07;;;;;;;;;;5046674;28;20401;-45
2023/05/11 07:54:22;;;;;;;27.20;17.17;;;;;;;;;;5030072;28;20960;-45
2023/05/11 07:56:48;;;;;;;29.70;17.37;;;;;;;;;;5044667;28;20462;-45
2023/05/11 07:59:14;;;;;;;30.70;17.50;;;;;;;;;;5048403;27;20423;-45
2023/05/11 08:01:40;;;;;;;27.80;16.13;;;;;;;;;;5049064;27;20395;-47
2023/05/11 08:04:06;;;;;;;23.20;14.70;;;;;;;;;;5047991;28;20411;-47
2023/05/11 08:06:32;;;;;;;25.23;15.37;;;;;;;;;;5048479;27;20420;-47
2023/05/11 08:08:58;;;;;;;29.20;15.60;;;;;;;;;;5048252;27;20409;-48
2023/05/11 08:11:25;;;;;;;24.10;15.10;;;;;;;;;;5048243;27;20774;-48
2023/05/11 08:13:51;;;;;;;25.53;15.17;;;;;;;;;;5047862;28;20707;-48
2023/05/11 08:16:17;;;;;;;23.20;14.37;;;;;;;;;;5048084;28;20844;-47
2023/05/11 08:18:44;;;;;;;23.07;14.40;;;;;;;;;;5048223;27;20408;-46
2023/05/11 08:21:10;;;;;;;21.13;14.20;;;;;;;;;;5047317;28;20509;-46
2023/05/11 08:23:36;;;;;;;22.83;14.60;;;;;;;;;;5047842;28;20440;-46
2023/05/11 08:26:02;;;;;;;20.77;13.70;;;;;;;;;;5047260;28;20424;-46
2023/05/11 08:28:28;;;;;;;21.77;14.00;;;;;;;;;;5048117;27;20828;-48
2023/05/11 08:30:55;;;;;;;20.80;12.60;;;;;;;;;;5048025;27;20450;-47
2023/05/11 08:33:21;;;;;;;32.03;14.70;;;;;;;;;;5047785;27;20436;-47
2023/05/11 08:35:46;;;;;;;21.70;14.57;;;;;;;;;;5047897;27;20432;-46
2023/05/11 08:38:13;;;;;;;22.80;14.53;;;;;;;;;;5049270;27;20841;-48
2023/05/11 08:40:46;;;;;;;22.17;14.20;;;;;;;;;;5051270;28;20758;-47
2023/05/11 08:43:13;;;;;;;42.37;16.90;;;;;;;;;;5050778;28;20437;-46
2023/05/11 08:45:40;;;;;;;17.40;12.80;;;;;;;;;;5051456;28;20407;-47
2023/05/11 08:48:06;;;;;;;20.83;13.50;;;;;;;;;;5048844;28;20420;-48
2023/05/11 08:50:32;;;;;;;19.27;13.03;;;;;;;;;;5051222;27;20378;-48
2023/05/11 08:52:58;;;;;;;21.60;13.77;;;;;;;;;;5044608;28;20507;-47
2023/05/11 08:55:26;;;;;;;20.20;12.87;;;;;;;;;;5035908;28;20524;-47
2023/05/11 08:57:53;;;;;;;19.70;11.80;;;;;;;;;;5030996;28;20459;-47
2023/05/11 09:00:19;;;;;;;21.27;13.77;;;;;;;;;;5031243;28;20920;-48
2023/05/11 09:02:46;;;;;;;23.63;11.90;;;;;;;;;;5031044;28;20453;-47
2023/05/11 09:05:12;;;;;;;23.93;12.97;;;;;;;;;;5031057;28;20492;-47
2023/05/11 09:07:40;;;;;;;16.93;12.03;;;;;;;;;;5031072;28;20932;-47
2023/05/11 09:10:07;;;;;;;20.10;13.33;;;;;;;;;;5031036;28;20379;-47
2023/05/11 09:12:33;;;;;;;17.80;13.17;;;;;;;;;;5030901;28;20421;-46
2023/05/11 09:14:59;;;;;;;20.20;12.40;;;;;;;;;;5031031;28;20542;-48
2023/05/11 09:17:27;;;;;;;20.77;14.67;;;;;;;;;;5030400;28;20594;-46
2023/05/11 09:20:07;;;;;;;22.40;13.57;;;;;;;;;;5043825;28;20444;-46
2023/05/11 09:22:34;;;;;;;21.17;14.53;;;;;;;;;;5050545;28;20443;-46
2023/05/11 09:25:03;;;;;;;14.60;12.27;;;;;;;;;;5050554;28;20461;-47
2023/05/11 09:27:30;;;;;;;19.60;13.73;;;;;;;;;;5050634;28;20473;-46
2023/05/11 09:29:56;;;;;;;17.27;12.03;;;;;;;;;;5050623;28;21097;-48
2023/05/11 09:32:23;;;;;;;22.83;15.57;;;;;;;;;;5050301;28;20754;-46
2023/05/11 09:34:49;;;;;;;23.23;13.73;;;;;;;;;;5050739;28;20428;-47
2023/05/11 09:37:16;;;;;;;20.40;13.73;;;;;;;;;;5050466;28;20449;-48
2023/05/11 09:39:42;;;;;;;17.60;12.87;;;;;;;;;;5050472;28;20408;-47
2023/05/11 09:42:18;;;;;;;18.47;12.70;;;;;;;;;;5050326;28;20398;-48
2023/05/11 09:44:45;;;;;;;17.60;13.10;;;;;;;;;;5050123;28;20419;-48
2023/05/11 09:47:12;;;;;;;18.50;13.37;;;;;;;;;;5050050;28;20848;-47
2023/05/11 09:49:44;;;;;;;17.73;12.43;;;;;;;;;;5048029;28;20452;-47
2023/05/11 09:52:11;;;;;;;17.00;11.50;;;;;;;;;;5049630;27;20430;-47
2023/05/11 09:54:41;;;;;;;16.70;11.47;;;;;;;;;;5050284;28;20756;-46
2023/05/11 09:57:08;;;;;;;16.60;10.97;;;;;;;;;;5050207;28;20510;-47
2023/05/11 09:59:39;;;;;;;18.37;12.40;;;;;;;;;;5050065;28;20411;-46
2023/05/11 10:02:22;;;;;;;19.13;12.67;;;;;;;;;;5050109;28;20403;-46
2023/05/11 10:04:48;;;;;;;18.70;11.93;;;;;;;;;;5050195;28;20395;-46
2023/05/11 10:07:33;;;;;;;16.47;11.70;;;;;;;;;;5050016;28;20410;-48
2023/05/11 10:10:00;;;;;;;25.90;13.97;;;;;;;;;;5049919;28;20433;-46
2023/05/11 10:12:27;;;;;;;24.77;15.43;;;;;;;;;;5049637;28;20435;-46
2023/05/11 10:15:11;;;;;;;23.70;14.30;;;;;;;;;;5049356;28;20453;-46
2023/05/11 10:17:38;;;;;;;25.93;15.60;;;;;;;;;;5049737;28;20548;-47
2023/05/11 10:20:05;;;;;;;26.77;15.60;;;;;;;;;;5048749;28;20415;-47
2023/05/11 10:22:31;;;;;;;36.67;19.17;;;;;;;;;;5048955;28;20430;-46
2023/05/11 10:24:58;;;;;;;27.67;17.57;;;;;;;;;;5051273;28;20418;-47
2023/05/11 10:27:24;;;;;;;23.77;16.37;;;;;;;;;;5069479;28;20432;-47
2023/05/11 10:29:50;;;;;;;27.00;16.20;;;;;;;;;;5069603;28;20781;-48
2023/05/11 10:32:17;;;;;;;26.87;17.03;;;;;;;;;;5069376;28;20477;-46
2023/05/11 10:34:45;;;;;;;31.10;16.47;;;;;;;;;;5069775;28;20497;-47
2023/05/11 10:37:11;;;;;;;26.43;16.47;;;;;;;;;;5069256;28;20482;-46
2023/05/11 10:39:38;;;;;;;29.10;16.50;;;;;;;;;;5069420;28;20820;-47
2023/05/11 10:42:10;;;;;;;27.67;16.53;;;;;;;;;;5069389;28;20398;-46
2023/05/11 10:44:39;;;;;;;26.40;15.93;;;;;;;;;;5069898;28;20399;-47
2023/05/11 10:47:14;;;;;;;26.47;15.40;;;;;;;;;;5069467;28;20413;-46
2023/05/11 10:49:40;;;;;;;27.33;17.70;;;;;;;;;;5054051;28;20426;-49
2023/05/11 10:52:16;;;;;;;31.90;18.20;;;;;;;;;;5049382;28;20415;-48
2023/05/11 10:54:49;;;;;;;25.17;17.30;;;;;;;;;;5049409;28;20435;-48
2023/05/11 10:57:24;;;;;;;23.83;15.80;;;;;;;;;;5049114;28;20456;-50
2023/05/11 11:00:08;;;;;;;24.33;16.67;;;;;;;;;;5048706;28;20437;-45
2023/05/11 11:02:35;;;;;;;24.90;15.97;;;;;;;;;;5048873;28;20389;-47
2023/05/11 11:05:04;;;;;;;25.37;16.07;;;;;;;;;;5049020;28;20420;-46
2023/05/11 11:07:30;;;;;;;21.70;13.60;;;;;;;;;;5049458;28;20490;-48
2023/05/11 11:10:08;;;;;;;21.90;16.37;;;;;;;;;;5043522;28;20432;-48
2023/05/11 11:12:34;;;;;;;23.77;14.87;;;;;;;;;;5046730;28;20406;-48
2023/05/11 11:15:06;;;;;;;24.70;17.40;;;;;;;;;;5047554;27;20453;-47
2023/05/11 11:17:33;;;;;;;22.50;14.90;;;;;;;;;;5048268;28;20473;-47
2023/05/11 11:20:00;;;;;;;19.87;14.20;;;;;;;;;;5048525;28;20437;-48
2023/05/11 11:22:35;;;;;;;22.20;15.33;;;;;;;;;;5047574;28;21026;-48
2023/05/11 11:25:04;;;;;;;25.90;18.20;;;;;;;;;;5046743;28;20808;-48
2023/05/11 11:27:39;;;;;;;21.20;14.73;;;;;;;;;;5046760;28;20417;-47
2023/05/11 11:30:15;;;;;;;20.23;15.10;;;;;;;;;;5047950;28;20428;-48
2023/05/11 11:32:41;;;;;;;24.13;16.77;;;;;;;;;;5043156;28;20835;-48
2023/05/11 11:35:27;;;;;;;23.20;17.80;;;;;;;;;;5046243;28;20551;-49
2023/05/11 11:38:03;;;;;;;21.60;15.10;;;;;;;;;;5040139;28;20478;-49
2023/05/11 11:40:39;;;;;;;31.00;17.77;;;;;;;;;;5043179;28;20500;-47
2023/05/11 11:43:18;;;;;;;20.73;12.93;;;;;;;;;;5046491;28;20491;-49
2023/05/11 11:45:51;;;;;;;15.50;11.07;;;;;;;;;;5049856;28;20460;-47
2023/05/11 11:48:28;;;;;;;20.23;13.37;;;;;;;;;;5048494;28;20434;-48
2023/05/11 11:51:20;;;;;;;20.50;10.73;;;;;;;;;;5048673;28;20417;-48
2023/05/11 11:53:50;;;;;;;16.63;12.70;;;;;;;;;;5050063;28;20847;-49
2023/05/11 11:56:15;;;;;;;18.70;11.40;;;;;;;;;;5049088;28;20463;-46
2023/05/11 11:58:45;;;;;;;14.70;11.03;;;;;;;;;;5049004;28;20813;-49
2023/05/11 12:01:21;;;;;;;16.03;11.07;;;;;;;;;;5049585;28;20469;-47
2023/05/11 12:03:53;;;;;;;36.83;12.93;;;;;;;;;;5047955;28;20433;-48
2023/05/11 12:06:23;;;;;;;21.03;11.53;;;;;;;;;;5049307;28;20440;-47
2023/05/11 12:08:50;;;;;;;14.33;11.43;;;;;;;;;;5049893;28;20404;-47
2023/05/11 12:11:16;;;;;;;16.37;12.07;;;;;;;;;;5050969;28;20408;-48
2023/05/11 12:13:43;;;;;;;15.10;10.70;;;;;;;;;;5052467;28;20421;-48
2023/05/11 12:16:16;;;;;;;12.47;10.63;;;;;;;;;;5052471;28;21092;-47
2023/05/11 12:18:42;;;;;;;15.00;11.93;;;;;;;;;;5050214;28;20484;-48
2023/05/11 12:21:20;;;;;;;11.80;9.57;;;;;;;;;;5043942;28;20436;-49
2023/05/11 12:23:57;;;;;;;13.17;7.93;;;;;;;;;;5048525;28;20436;-47
2023/05/11 12:26:23;;;;;;;13.87;8.70;;;;;;;;;;5051712;28;20401;-49
2023/05/11 12:28:50;;;;;;;10.70;8.23;;;;;;;;;;5051485;28;20916;-48
2023/05/11 12:31:16;;;;;;;11.37;9.73;;;;;;;;;;5051521;28;20801;-48
2023/05/11 12:33:49;;;;;;;9.67;8.07;;;;;;;;;;5051314;28;20422;-48
2023/05/11 12:36:16;;;;;;;13.50;10.77;;;;;;;;;;5051474;28;20484;-46
2023/05/11 12:38:45;;;;;;;17.87;10.60;;;;;;;;;;5051642;28;20409;-48
2023/05/11 12:41:11;;;;;;;16.10;11.40;;;;;;;;;;5051696;28;20410;-49
2023/05/11 12:43:37;;;;;;;16.33;11.87;;;;;;;;;;5051068;28;20421;-49
2023/05/11 12:46:03;;;;;;;16.27;10.93;;;;;;;;;;5051528;28;20845;-48
2023/05/11 12:48:29;;;;;;;20.70;11.03;;;;;;;;;;5051331;28;20404;-49
2023/05/11 12:50:56;;;;;;;19.70;12.07;;;;;;;;;;5048873;28;20504;-49
2023/05/11 12:53:22;;;;;;;15.30;11.60;;;;;;;;;;5051237;28;20407;-49
2023/05/11 12:55:58;;;;;;;18.97;11.40;;;;;;;;;;5051431;28;20595;-49
2023/05/11 12:58:24;;;;;;;20.97;14.90;;;;;;;;;;5051514;28;20412;-47
2023/05/11 13:00:51;;;;;;;23.80;15.13;;;;;;;;;;5051383;28;20434;-49
2023/05/11 13:03:25;;;;;;;30.10;15.63;;;;;;;;;;5051157;28;20481;-48
2023/05/11 13:05:53;;;;;;;20.13;13.97;;;;;;;;;;5051343;28;20393;-47
2023/05/11 13:08:19;;;;;;;24.03;14.53;;;;;;;;;;5050851;28;20454;-49
2023/05/11 13:10:46;;;;;;;17.07;13.67;;;;;;;;;;5050887;28;20896;-49
2023/05/11 13:13:25;;;;;;;21.17;13.60;;;;;;;;;;5050687;28;20409;-49
2023/05/11 13:15:51;;;;;;;21.00;14.90;;;;;;;;;;5051151;28;20396;-47
2023/05/11 13:18:17;;;;;;;16.80;13.00;;;;;;;;;;5050262;28;20394;-48
2023/05/11 13:20:43;;;;;;;22.17;15.10;;;;;;;;;;5047678;28;20485;-47
2023/05/11 13:23:10;;;;;;;19.40;14.73;;;;;;;;;;5043873;28;20513;-47
2023/05/11 13:25:47;;;;;;;21.30;13.90;;;;;;;;;;5030830;28;20417;-47
2023/05/11 13:28:14;;;;;;;19.47;14.17;;;;;;;;;;5030762;28;20405;-49
2023/05/11 13:30:41;;;;;;;17.00;13.60;;;;;;;;;;5030903;28;20405;-47
2023/05/11 13:33:07;;;;;;;18.00;14.30;;;;;;;;;;5047138;28;20406;-48
2023/05/11 13:35:37;;;;;;;19.87;14.07;;;;;;;;;;5050664;28;20402;-45
2023/05/11 13:38:03;;;;;;;19.30;12.83;;;;;;;;;;5049841;28;20487;-45
2023/05/11 13:40:29;;;;;;;18.40;11.90;;;;;;;;;;5050426;28;20412;-46
2023/05/11 13:42:55;;;;;;;16.47;11.90;;;;;;;;;;5049506;28;20415;-45
2023/05/11 13:45:21;;;;;;;10.23;7.93;;;;;;;;;;5042574;28;20462;-45
2023/05/11 13:47:47;;;;;;;9.73;6.97;;;;;;;;;;5030309;28;20440;-44
2023/05/11 13:50:14;;;;;;;14.87;10.03;;;;;;;;;;5030145;28;20408;-44
2023/05/11 13:52:42;;;;;;;10.33;8.17;;;;;;;;;;5049999;28;20418;-45
2023/05/11 13:55:09;;;;;;;26.03;8.47;;;;;;;;;;5050057;28;20786;-45
2023/05/11 13:57:35;;;;;;;11.00;7.43;;;;;;;;;;5050107;28;20427;-45
2023/05/11 14:00:01;;;;;;;12.50;8.80;;;;;;;;;;5050188;28;20372;-45
2023/05/11 14:02:27;;;;;;;13.80;9.30;;;;;;;;;;5049900;28;20387;-45
2023/05/11 14:04:53;;;;;;;13.80;8.27;;;;;;;;;;5049845;28;20469;-45
2023/05/11 14:07:19;;;;;;;13.77;7.43;;;;;;;;;;5049780;28;20412;-45
2023/05/11 14:09:47;;;;;;;10.37;6.90;;;;;;;;;;5049834;28;20403;-46
2023/05/11 14:12:13;;;;;;;21.33;8.40;;;;;;;;;;5049840;28;20408;-45
2023/05/11 14:14:39;;;;;;;24.10;9.13;;;;;;;;;;5050019;28;20786;-45
2023/05/11 14:17:05;;;;;;;12.37;8.20;;;;;;;;;;5049629;28;20455;-45
2023/05/11 14:19:31;;;;;;;15.20;11.03;;;;;;;;;;5048390;28;20421;-44
2023/05/11 14:21:57;;;;;;;12.93;8.47;;;;;;;;;;5047562;28;20512;-45